Weldon, CA (93283)

3:20 AM PST on February 09, 2016 (GMT -0800)
Weldon (Lake Isabella) | | Change Station
CLOSE
Current Station
Personal Weather Station
Location: Weldon, CA
Elevation: 3196 ft
Nearby Weather Stations

Elev 3196 ft 35.63 °N, 118.34 °W | Updated 6 seconds ago

Clear
Clear
48.9 °F
Feels Like 48 °F
N
3.4
Wind Variable Wind from SSE
Gusts 4.9 mph

Today
High -- | Low -- °F
--% Chance of Precip.
Yesterday
High -- | Low -- °F
Precip. -- in
Pressure 30.32 in
Visibility 10.0 miles
Clouds Clear
Windchill 48 °F
Dew Point 24 °F
Humidity 37%
Rainfall 0.00 in
Snow Depth Not available.
6:46 AM 5:28 PM
New Moon, 1% visible
METAR KNID 091056Z AUTO 20005KT 10SM CLR 04/M03 A3032 RMK AO2 SLP266 T00391033 $
Pressure 30.32 in
Visibility 10.0 miles
Clouds Clear
Windchill 48 °F
Dew Point 24 °F
Humidity 37%
Rainfall 0.00 in
Snow Depth Not available.
6:46 AM 5:28 PM
New Moon, 1% visible
METAR KNID 091056Z AUTO 20005KT 10SM CLR 04/M03 A3032 RMK AO2 SLP266 T00391033 $

10-Day Weather Forecast

Almanac

Astronomy

Feb. 09, 2016 Rise Set
Actual Time
Civil Twilight
Nautical Twilight
Astronomical Twilight
Moon
Length of Visible Light
Length of Day
Tomorrow will be .
, % of the Moon is Illuminated

Today's Extremes

State Highs State Lows

Community

WunderPhotos

Upload Photos

1,891,565 photos uploaded!

WunderBlog® & News

Nearby

Air Quality

  Air Quality AQ Index Pollutant
Not available.

Snow Depth

Station Depth Elevation

Earthquake Activity

City Distance Mag. Time & Date
Minimum magnitude displayed is 2.5.

Coastal Water Temperatures

Place Temperature

Stations

Nearby Weather Stations

Station Location Temp. Windchill Dew Point Humidity Wind Precip. Elev Updated Type
                   

Watches & Warnings

There are currently no watches in effect.